createdAt,value
2018-11-20T00:00:03.596Z,72.48
2018-11-20T00:02:51.118Z,72.17
2018-11-20T00:05:34.742Z,72.53
2018-11-20T00:08:30.222Z,72.36
2018-11-20T00:11:22.493Z,72.59
2018-11-20T00:14:11.103Z,72.81
2018-11-20T00:17:06.790Z,72.76
2018-11-20T00:19:55.659Z,72.99
2018-11-20T00:22:42.279Z,72.85
2018-11-20T00:25:25.827Z,72.84
2018-11-20T00:28:14.590Z,72.88
2018-11-20T00:31:06.900Z,73.21
2018-11-20T00:34:06.155Z,73.37
2018-11-20T00:36:54.192Z,73.61
2018-11-20T00:39:49.970Z,73.11
2018-11-20T00:42:45.266Z,72.86
2018-11-20T00:45:33.964Z,73.70
2018-11-20T00:48:18.018Z,73.06
2018-11-20T00:51:08.451Z,72.54
2018-11-20T00:53:56.526Z,72.82
2018-11-20T00:56:56.628Z,73.21
2018-11-20T00:59:47.754Z,73.52
2018-11-20T01:02:36.247Z,74.01
2018-11-20T01:05:32.828Z,73.76
2018-11-20T01:08:13.925Z,73.64
2018-11-20T01:11:06.252Z,73.48
2018-11-20T01:13:54.825Z,73.77
2018-11-20T01:16:44.471Z,74.20
2018-11-20T01:19:40.342Z,74.04
2018-11-20T01:22:29.828Z,74.36
2018-11-20T01:25:10.068Z,74.04
2018-11-20T01:28:05.571Z,74.02
2018-11-20T01:31:03.882Z,74.12
2018-11-20T01:33:47.077Z,74.21
2018-11-20T01:36:35.203Z,74.00
2018-11-20T01:39:29.193Z,74.53
2018-11-20T01:42:07.778Z,73.83
2018-11-20T01:45:15.550Z,74.17
2018-11-20T01:48:11.084Z,74.62
2018-11-20T01:50:54.420Z,74.82
2018-11-20T01:53:50.258Z,74.64
2018-11-20T01:56:45.947Z,74.23
2018-11-20T01:59:29.517Z,74.47
2018-11-20T02:02:17.911Z,74.40
2018-11-20T02:05:13.748Z,74.36
2018-11-20T02:08:06.182Z,74.62
2018-11-20T02:11:07.496Z,74.52
2018-11-20T02:14:15.603Z,74.74
2018-11-20T02:17:24.070Z,74.13
2018-11-20T02:20:17.147Z,74.40
2018-11-20T02:23:06.794Z,74.45
2018-11-20T02:25:51.079Z,74.24
2018-11-20T02:28:43.376Z,74.35
2018-11-20T02:31:32.117Z,74.20
2018-11-20T02:34:28.889Z,73.71
2018-11-20T02:37:07.950Z,74.23
2018-11-20T02:39:58.563Z,74.26
2018-11-20T02:42:41.501Z,74.56
2018-11-20T02:45:39.500Z,74.19
2018-11-20T02:48:28.413Z,74.50
2018-11-20T02:51:18.154Z,74.59
2018-11-20T02:54:13.830Z,74.30
2018-11-20T02:57:09.361Z,74.28
2018-11-20T03:00:14.015Z,73.39
2018-11-20T03:03:19.607Z,73.16
2018-11-20T03:06:12.170Z,73.52
2018-11-20T03:08:55.554Z,73.45
2018-11-20T03:11:45.122Z,73.48
2018-11-20T03:14:37.474Z,73.47
2018-11-20T03:17:25.514Z,73.80
2018-11-20T03:20:09.448Z,73.40
2018-11-20T03:23:08.324Z,72.88
2018-11-20T03:26:04.720Z,72.91
2018-11-20T03:29:08.226Z,73.17
2018-11-20T03:31:56.699Z,73.20
2018-11-20T03:34:49.045Z,72.92
2018-11-20T03:37:28.313Z,72.86
2018-11-20T03:40:16.650Z,72.83
2018-11-20T03:42:52.920Z,72.26
2018-11-20T03:45:32.749Z,72.45
2018-11-20T03:48:40.646Z,72.26
2018-11-20T03:51:31.037Z,72.42
2018-11-20T03:54:35.803Z,72.50
2018-11-20T03:57:22.976Z,72.68
2018-11-20T04:00:01.018Z,72.17
2018-11-20T04:02:50.574Z,72.30
2018-11-20T04:05:49.460Z,72.48
2018-11-20T04:08:41.922Z,71.72
2018-11-20T04:11:24.746Z,71.90
2018-11-20T04:14:12.825Z,72.34
2018-11-20T04:16:57.177Z,72.07
2018-11-20T04:19:50.082Z,72.43
2018-11-20T04:22:39.654Z,72.42
2018-11-20T04:25:28.222Z,72.40
2018-11-20T04:28:16.285Z,72.22
2018-11-20T04:31:47.887Z,72.21
2018-11-20T04:34:49.660Z,72.44
2018-11-20T04:37:38.408Z,72.03
2018-11-20T04:40:40.687Z,72.04
2018-11-20T04:43:23.862Z,72.15
2018-11-20T04:46:11.861Z,72.31
2018-11-20T04:49:04.109Z,72.18
2018-11-20T04:51:46.511Z,72.03
2018-11-20T04:54:30.105Z,72.22
2018-11-20T04:57:18.597Z,72.49
2018-11-20T05:00:14.029Z,71.94
2018-11-20T05:03:12.324Z,72.15
2018-11-20T05:06:00.578Z,72.31
2018-11-20T05:08:55.528Z,72.26
2018-11-20T05:11:36.690Z,72.12
2018-11-20T05:14:35.609Z,72.37
2018-11-20T05:17:40.751Z,72.34
2018-11-20T05:20:33.116Z,72.34
2018-11-20T05:23:21.264Z,72.88
2018-11-20T05:25:58.176Z,72.59
2018-11-20T05:28:44.769Z,72.25
2018-11-20T05:31:30.804Z,72.49
2018-11-20T05:34:10.006Z,72.12
2018-11-20T05:36:59.550Z,72.07
2018-11-20T05:39:57.957Z,72.69
2018-11-20T05:42:46.495Z,72.34
2018-11-20T05:45:41.833Z,71.99
2018-11-20T05:48:37.624Z,72.79
2018-11-20T05:51:17.693Z,72.37
2018-11-20T05:54:03.816Z,72.29
2018-11-20T05:56:52.146Z,72.22
2018-11-20T05:59:56.831Z,72.48
2018-11-20T06:02:45.098Z,72.21
2018-11-20T06:05:31.217Z,71.80
2018-11-20T06:08:14.690Z,71.22
2018-11-20T06:10:52.558Z,71.49
2018-11-20T06:13:40.784Z,71.46
2018-11-20T06:16:33.417Z,71.67
2018-11-20T06:19:31.609Z,71.50
2018-11-20T06:22:20.114Z,71.85
2018-11-20T06:25:08.444Z,71.90
2018-11-20T06:28:03.757Z,71.66
2018-11-20T06:30:42.468Z,71.72
2018-11-20T06:33:32.105Z,71.79
2018-11-20T06:36:23.420Z,72.08
2018-11-20T06:39:09.766Z,72.58
2018-11-20T06:42:08.491Z,72.42
2018-11-20T06:45:01.678Z,72.92
2018-11-20T06:47:49.845Z,73.23
2018-11-20T06:50:27.988Z,74.21
2018-11-20T06:53:16.985Z,75.00
2018-11-20T06:56:18.396Z,75.61
2018-11-20T06:59:17.263Z,76.32
2018-11-20T07:01:54.712Z,77.85
2018-11-20T07:05:02.710Z,78.87
2018-11-20T07:07:47.734Z,79.89
2018-11-20T07:10:55.510Z,81.62
2018-11-20T07:13:49.749Z,83.10
2018-11-20T07:16:45.415Z,84.49
2018-11-20T07:19:53.962Z,85.42
2018-11-20T07:22:52.382Z,86.09
2018-11-20T07:25:45.146Z,86.90
2018-11-20T07:28:33.213Z,87.68
2018-11-20T07:31:38.246Z,87.95
2018-11-20T07:34:27.812Z,88.26
2018-11-20T07:37:16.127Z,88.32
2018-11-20T07:39:57.853Z,88.72
2018-11-20T07:42:42.789Z,88.82
2018-11-20T07:45:31.318Z,88.73
2018-11-20T07:48:35.931Z,89.01
2018-11-20T07:51:39.143Z,88.48
2018-11-20T07:54:28.675Z,89.24
2018-11-20T07:57:08.022Z,88.64
2018-11-20T07:59:53.378Z,88.78
2018-11-20T08:02:43.022Z,88.59
2018-11-20T08:05:26.622Z,88.55
2018-11-20T08:08:15.100Z,88.94
2018-11-20T08:11:01.006Z,88.54
2018-11-20T08:13:53.712Z,88.47
2018-11-20T08:16:36.310Z,88.10
2018-11-20T08:19:38.170Z,87.63
2018-11-20T08:22:18.598Z,87.49
2018-11-20T08:25:10.785Z,87.29
2018-11-20T08:27:59.264Z,86.78
2018-11-20T08:31:07.447Z,86.93
2018-11-20T08:33:55.734Z,86.72
2018-11-20T08:36:35.764Z,86.32
2018-11-20T08:39:26.192Z,86.47
2018-11-20T08:42:10.811Z,86.51
2018-11-20T08:45:03.468Z,86.73
2018-11-20T08:48:12.221Z,86.37
2018-11-20T08:51:01.698Z,86.29
2018-11-20T08:53:54.637Z,86.44
2018-11-20T08:56:36.891Z,86.11
2018-11-20T08:59:44.897Z,85.55
2018-11-20T09:02:35.555Z,85.84
2018-11-20T09:05:23.991Z,85.65
2018-11-20T09:08:12.289Z,84.99
2018-11-20T09:11:00.540Z,85.48
2018-11-20T09:13:48.771Z,85.14
2018-11-20T09:16:44.497Z,85.23
2018-11-20T09:19:40.106Z,85.71
2018-11-20T09:22:28.900Z,85.20
2018-11-20T09:25:21.193Z,85.39
2018-11-20T09:28:29.219Z,84.63
2018-11-20T09:31:24.620Z,85.12
2018-11-20T09:34:13.384Z,84.88
2018-11-20T09:37:06.560Z,84.58
2018-11-20T09:40:11.590Z,84.59
2018-11-20T09:43:04.776Z,84.29
2018-11-20T09:46:13.153Z,83.99
2018-11-20T09:49:01.009Z,83.68
2018-11-20T09:51:49.485Z,82.83
2018-11-20T09:54:48.028Z,83.29
2018-11-20T09:57:36.503Z,83.09
2018-11-20T10:00:36.015Z,83.13
2018-11-20T10:03:14.183Z,82.49
2018-11-20T10:06:02.300Z,81.45
2018-11-20T10:09:07.227Z,80.74
2018-11-20T10:11:52.398Z,80.58
2018-11-20T10:14:34.253Z,80.30
2018-11-20T10:17:22.395Z,78.89
2018-11-20T10:20:17.561Z,79.07
2018-11-20T10:23:04.039Z,78.17
2018-11-20T10:25:52.620Z,77.95
2018-11-20T10:28:45.027Z,77.48
2018-11-20T10:31:37.078Z,76.83
2018-11-20T10:34:32.837Z,77.24
2018-11-20T10:37:09.879Z,76.08
2018-11-20T10:40:05.281Z,76.33
2018-11-20T10:43:13.339Z,74.17
2018-11-20T10:46:02.951Z,73.53
2018-11-20T10:48:58.535Z,74.22
2018-11-20T10:51:50.728Z,74.28
2018-11-20T10:54:58.516Z,74.06
2018-11-20T10:57:53.987Z,73.39
2018-11-20T11:00:42.187Z,72.69
2018-11-20T11:03:19.748Z,72.37
2018-11-20T11:06:07.969Z,71.84
2018-11-20T11:08:56.389Z,70.52
2018-11-20T11:11:45.046Z,70.60
2018-11-20T11:14:33.807Z,70.26
2018-11-20T11:17:21.753Z,69.76
2018-11-20T11:20:10.283Z,69.07
2018-11-20T11:23:15.159Z,69.94
2018-11-20T11:26:03.482Z,69.69
2018-11-20T11:28:41.488Z,70.80
2018-11-20T11:31:25.732Z,70.88
2018-11-20T11:34:16.750Z,71.55
2018-11-20T11:37:05.304Z,70.63
2018-11-20T11:39:53.746Z,69.36
2018-11-20T11:42:45.398Z,70.23
2018-11-20T11:45:41.147Z,70.12
2018-11-20T11:48:39.503Z,69.76
2018-11-20T11:51:31.776Z,69.14
2018-11-20T11:54:20.307Z,67.34
2018-11-20T11:57:10.209Z,67.21
2018-11-20T11:59:58.378Z,67.86
2018-11-20T12:05:38.825Z,68.55
2018-11-20T12:08:27.012Z,67.65
2018-11-20T12:11:15.081Z,65.93
2018-11-20T12:14:05.016Z,65.46
2018-11-20T12:17:06.887Z,62.81
2018-11-20T12:19:55.466Z,58.84
2018-11-20T12:22:44.359Z,58.31
2018-11-20T12:25:37.807Z,57.99
2018-11-20T12:28:26.090Z,56.43
2018-11-20T12:31:12.909Z,56.36
2018-11-20T12:33:54.283Z,56.56
2018-11-20T12:36:42.619Z,57.01
2018-11-20T12:39:26.486Z,56.45
2018-11-20T12:42:14.834Z,54.64
2018-11-20T12:45:15.600Z,60.87
2018-11-20T12:48:12.180Z,58.79
2018-11-20T12:51:11.095Z,56.17
2018-11-20T12:54:00.618Z,55.23
2018-11-20T12:56:48.668Z,57.15
2018-11-20T12:59:41.211Z,56.33
2018-11-20T13:02:30.844Z,55.85
2018-11-20T13:05:13.373Z,55.04
2018-11-20T13:08:06.217Z,52.56
2018-11-20T13:10:55.988Z,52.66
2018-11-20T13:13:45.524Z,54.54
2018-11-20T13:16:24.957Z,54.52
2018-11-20T13:19:20.519Z,54.90
2018-11-20T13:22:10.289Z,53.99
2018-11-20T13:25:18.053Z,54.63
2018-11-20T13:28:22.857Z,56.17
2018-11-20T13:31:09.695Z,60.13
2018-11-20T13:34:02.369Z,57.17
2018-11-20T13:36:54.805Z,54.61
2018-11-20T13:39:34.402Z,54.60
2018-11-20T13:42:32.002Z,53.63
2018-11-20T13:45:18.585Z,53.81
2018-11-20T13:48:14.172Z,53.16
2018-11-20T13:51:05.417Z,52.84
2018-11-20T13:53:53.540Z,54.27
2018-11-20T13:56:41.843Z,54.34
2018-11-20T13:59:30.068Z,54.69
2018-11-20T14:02:25.221Z,55.67
2018-11-20T14:05:19.472Z,55.25
2018-11-20T14:08:20.645Z,56.14
2018-11-20T14:11:22.440Z,56.15
2018-11-20T14:14:05.030Z,57.03
2018-11-20T14:17:00.467Z,57.00
2018-11-20T14:19:55.850Z,55.82
2018-11-20T14:22:40.466Z,57.18
2018-11-20T14:25:51.765Z,57.78
2018-11-20T14:28:39.777Z,56.56
2018-11-20T14:31:21.796Z,56.70
2018-11-20T14:34:09.160Z,56.76
2018-11-20T14:36:57.455Z,58.95
2018-11-20T14:39:56.285Z,59.25
2018-11-20T14:42:44.474Z,60.07
2018-11-20T14:45:45.148Z,60.61
2018-11-20T14:48:27.443Z,61.32
2018-11-20T14:51:16.222Z,61.65
2018-11-20T14:54:08.508Z,63.21
2018-11-20T14:57:16.452Z,65.45
2018-11-20T15:00:14.560Z,67.46
2018-11-20T15:03:13.600Z,68.49
2018-11-20T15:05:58.377Z,69.80
2018-11-20T15:08:40.164Z,70.24
2018-11-20T15:11:28.302Z,70.88
2018-11-20T15:14:18.528Z,71.31
2018-11-20T15:17:13.431Z,71.94
2018-11-20T15:20:12.061Z,72.46
2018-11-20T15:23:14.256Z,73.65
2018-11-20T15:25:54.947Z,74.42
2018-11-20T15:28:47.518Z,75.93
2018-11-20T15:31:55.413Z,76.67
2018-11-20T15:34:43.594Z,76.95
2018-11-20T15:37:32.513Z,77.36
2018-11-20T15:40:27.661Z,78.72
2018-11-20T15:43:15.972Z,78.36
2018-11-20T15:46:04.195Z,77.93
2018-11-20T15:48:52.839Z,79.17
2018-11-20T15:51:32.720Z,78.34
2018-11-20T15:54:31.899Z,78.26
2018-11-20T15:57:21.143Z,79.99
2018-11-20T16:00:28.936Z,78.80
2018-11-20T16:03:22.946Z,79.49
2018-11-20T16:06:04.926Z,81.28
2018-11-20T16:08:57.263Z,80.76
2018-11-20T16:12:02.174Z,80.00
2018-11-20T16:14:57.702Z,80.59
2018-11-20T16:17:50.017Z,83.61
2018-11-20T16:20:29.568Z,83.68
2018-11-20T16:23:25.021Z,82.09
2018-11-20T16:26:14.567Z,83.22
2018-11-20T16:29:16.710Z,82.89
2018-11-20T16:32:06.688Z,82.81
2018-11-20T16:34:54.789Z,83.26
2018-11-20T16:37:56.156Z,83.84
2018-11-20T16:40:54.496Z,82.77
2018-11-20T16:43:44.286Z,82.52
2018-11-20T16:46:48.724Z,83.76
2018-11-20T16:49:36.649Z,82.79
2018-11-20T16:52:29.027Z,83.31
2018-11-20T16:55:19.022Z,84.25
2018-11-20T16:58:16.815Z,84.12
2018-11-20T17:01:06.594Z,83.60
2018-11-20T17:03:54.655Z,84.45
2018-11-20T17:06:35.195Z,84.37
2018-11-20T17:09:41.707Z,84.94
2018-11-20T17:12:20.094Z,85.43
2018-11-20T17:15:02.134Z,85.91
2018-11-20T17:17:45.046Z,86.01
2018-11-20T17:20:31.314Z,85.68
2018-11-20T17:23:20.858Z,84.93
2018-11-20T17:26:08.787Z,85.61
2018-11-20T17:28:58.644Z,85.01
2018-11-20T17:31:46.807Z,84.81
2018-11-20T17:34:36.042Z,84.65
2018-11-20T17:37:27.156Z,84.94
2018-11-20T17:40:15.195Z,85.14
2018-11-20T17:43:14.172Z,84.97
2018-11-20T17:46:03.903Z,84.34
2018-11-20T17:48:59.123Z,84.23
2018-11-20T17:52:07.008Z,84.05
2018-11-20T17:55:02.307Z,83.90
2018-11-20T17:57:57.238Z,83.90
2018-11-20T18:00:44.054Z,83.78
2018-11-20T18:03:33.749Z,84.71
2018-11-20T18:06:32.168Z,84.47
2018-11-20T18:09:20.170Z,84.69
2018-11-20T18:12:09.040Z,85.54
2018-11-20T18:14:57.423Z,85.63
2018-11-20T18:17:53.697Z,84.70
2018-11-20T18:20:41.615Z,85.37
2018-11-20T18:23:46.223Z,85.72
2018-11-20T18:26:48.771Z,86.37
2018-11-20T18:29:50.302Z,86.97
2018-11-20T18:32:38.833Z,86.52
2018-11-20T18:35:28.697Z,86.33
2018-11-20T18:38:36.812Z,86.60
2018-11-20T18:41:23.101Z,86.80
2018-11-20T18:44:15.330Z,87.46
2018-11-20T18:47:23.220Z,87.41
2018-11-20T18:50:28.080Z,87.49
2018-11-20T18:53:16.362Z,87.75
2018-11-20T18:56:03.825Z,87.58
2018-11-20T18:58:51.629Z,87.11
2018-11-20T19:01:39.935Z,86.88
2018-11-20T19:04:35.821Z,86.81
2018-11-20T19:07:32.612Z,87.10
2018-11-20T19:10:28.262Z,87.14
2018-11-20T19:13:20.856Z,87.50
2018-11-20T19:16:09.288Z,87.15
2018-11-20T19:19:02.994Z,87.02
2018-11-20T19:21:58.586Z,86.88
2018-11-20T19:24:53.661Z,87.24
2018-11-20T19:27:46.178Z,86.95
2018-11-20T19:30:50.822Z,87.00
2018-11-20T19:33:46.397Z,86.31
2018-11-20T19:36:28.358Z,86.84
2018-11-20T19:39:15.916Z,86.68
2018-11-20T19:42:08.748Z,86.94
2018-11-20T19:44:49.712Z,87.22
2018-11-20T19:47:45.182Z,87.15
2018-11-20T19:50:35.080Z,87.04
2018-11-20T19:53:23.820Z,87.02
2018-11-20T19:56:22.392Z,86.81
2018-11-20T19:59:20.653Z,86.87
2018-11-20T20:02:22.349Z,87.36
2018-11-20T20:05:21.214Z,87.47
2018-11-20T20:08:26.037Z,88.05
2018-11-20T20:11:06.108Z,87.56
2018-11-20T20:13:54.372Z,87.58
2018-11-20T20:16:48.216Z,87.89
2018-11-20T20:19:36.682Z,88.05
2018-11-20T20:22:24.963Z,88.36
2018-11-20T20:25:14.606Z,88.22
2018-11-20T20:28:07.435Z,88.12
2018-11-20T20:30:55.450Z,87.97
2018-11-20T20:33:43.762Z,87.97
2018-11-20T20:36:32.221Z,87.44
2018-11-20T20:39:21.178Z,87.78
2018-11-20T20:42:09.376Z,87.93
2018-11-20T20:44:57.511Z,88.16
2018-11-20T20:47:49.850Z,87.95
2018-11-20T20:50:57.746Z,88.13
2018-11-20T20:53:43.843Z,88.40
2018-11-20T20:56:27.391Z,88.08
2018-11-20T20:59:19.126Z,88.05
2018-11-20T21:02:14.650Z,88.39
2018-11-20T21:05:07.782Z,88.54
2018-11-20T21:07:55.912Z,88.29
2018-11-20T21:10:44.239Z,87.95
2018-11-20T21:13:42.595Z,88.08
2018-11-20T21:16:32.243Z,88.26
2018-11-20T21:19:21.767Z,88.38
2018-11-20T21:22:17.519Z,88.33
2018-11-20T21:25:07.152Z,87.86
2018-11-20T21:27:48.042Z,87.32
2018-11-20T21:30:43.750Z,87.58
2018-11-20T21:33:26.877Z,87.41
2018-11-20T21:36:25.220Z,87.58
2018-11-20T21:39:13.681Z,87.73
2018-11-20T21:41:57.133Z,87.87
2018-11-20T21:44:49.528Z,87.96
2018-11-20T21:47:38.450Z,87.54
2018-11-20T21:50:36.132Z,87.25
2018-11-20T21:53:26.042Z,87.55
2018-11-20T21:56:21.634Z,87.78
2018-11-20T21:59:19.680Z,87.67
2018-11-20T22:02:10.479Z,87.87
2018-11-20T22:05:03.121Z,88.25
2018-11-20T22:07:42.677Z,88.00
2018-11-20T22:10:33.500Z,87.94
2018-11-20T22:13:35.395Z,87.85
2018-11-20T22:16:23.283Z,88.06
2018-11-20T22:19:19.103Z,87.59
2018-11-20T22:22:54.081Z,87.71
2018-11-20T22:25:51.555Z,87.45
2018-11-20T22:28:49.668Z,87.20
2018-11-20T22:31:32.007Z,87.04
2018-11-20T22:34:23.307Z,87.78
2018-11-20T22:37:10.236Z,87.96
2018-11-20T22:39:57.415Z,87.66
2018-11-20T22:42:52.210Z,87.91
2018-11-20T22:45:55.647Z,88.21
2018-11-20T22:48:43.045Z,88.05
2018-11-20T22:51:37.297Z,88.27
2018-11-20T22:54:24.612Z,88.16
2018-11-20T22:57:05.286Z,88.35
2018-11-20T22:59:53.198Z,88.20
2018-11-20T23:02:50.311Z,87.91
2018-11-20T23:05:46.133Z,88.05
2018-11-20T23:08:15.568Z,88.02
2018-11-20T23:10:44.950Z,87.85
2018-11-20T23:13:14.504Z,88.06
2018-11-20T23:15:43.945Z,88.28
2018-11-20T23:18:13.365Z,88.12
2018-11-20T23:20:43.582Z,88.05
2018-11-20T23:23:12.999Z,88.11
2018-11-20T23:25:42.351Z,88.00
2018-11-20T23:28:11.780Z,88.67
2018-11-20T23:30:41.434Z,88.55
2018-11-20T23:33:10.772Z,88.65
2018-11-20T23:35:40.212Z,88.68
2018-11-20T23:38:09.973Z,88.19
2018-11-20T23:40:39.350Z,88.59
2018-11-20T23:43:09.038Z,88.70
2018-11-20T23:45:39.046Z,88.29
2018-11-20T23:48:08.781Z,88.42
2018-11-20T23:50:38.483Z,88.42
2018-11-20T23:53:08.611Z,88.04
2018-11-20T23:55:37.988Z,88.17
2018-11-20T23:58:07.471Z,88.12
